sensor_id;sensor_type;location;lat;lon;timestamp;P1;durP1;ratioP1;P2;durP2;ratioP2
71106;SDS011;58763;47.982;11.516;2024-01-27T00:00:07;5.43;;;1.20;;
71106;SDS011;58763;47.982;11.516;2024-01-27T00:02:34;4.65;;;1.55;;
71106;SDS011;58763;47.982;11.516;2024-01-27T00:04:59;4.40;;;1.10;;
71106;SDS011;58763;47.982;11.516;2024-01-27T00:07:25;3.85;;;1.30;;
71106;SDS011;58763;47.982;11.516;2024-01-27T00:09:52;4.13;;;1.17;;
71106;SDS011;58763;47.982;11.516;2024-01-27T00:12:18;4.63;;;1.15;;
71106;SDS011;58763;47.982;11.516;2024-01-27T00:14:43;5.13;;;1.35;;
71106;SDS011;58763;47.982;11.516;2024-01-27T00:17:09;4.13;;;1.23;;
71106;SDS011;58763;47.982;11.516;2024-01-27T00:19:35;5.30;;;1.17;;
71106;SDS011;58763;47.982;11.516;2024-01-27T00:22:01;3.83;;;1.20;;
71106;SDS011;58763;47.982;11.516;2024-01-27T00:24:27;5.38;;;1.00;;
71106;SDS011;58763;47.982;11.516;2024-01-27T00:26:53;3.95;;;1.30;;
71106;SDS011;58763;47.982;11.516;2024-01-27T00:29:19;5.13;;;1.20;;
71106;SDS011;58763;47.982;11.516;2024-01-27T00:31:45;3.50;;;1.30;;
71106;SDS011;58763;47.982;11.516;2024-01-27T00:34:11;4.05;;;1.55;;
71106;SDS011;58763;47.982;11.516;2024-01-27T00:36:36;4.20;;;1.48;;
71106;SDS011;58763;47.982;11.516;2024-01-27T00:39:02;3.65;;;1.30;;
71106;SDS011;58763;47.982;11.516;2024-01-27T00:41:29;3.45;;;1.48;;
71106;SDS011;58763;47.982;11.516;2024-01-27T00:43:55;5.65;;;1.50;;
71106;SDS011;58763;47.982;11.516;2024-01-27T00:46:21;4.95;;;1.45;;
71106;SDS011;58763;47.982;11.516;2024-01-27T00:48:47;4.40;;;1.50;;
71106;SDS011;58763;47.982;11.516;2024-01-27T00:51:13;4.10;;;1.30;;
71106;SDS011;58763;47.982;11.516;2024-01-27T00:53:39;3.25;;;1.27;;
71106;SDS011;58763;47.982;11.516;2024-01-27T00:56:06;4.32;;;1.30;;
71106;SDS011;58763;47.982;11.516;2024-01-27T00:58:32;6.40;;;1.30;;
71106;SDS011;58763;47.982;11.516;2024-01-27T01:00:57;5.38;;;1.45;;
71106;SDS011;58763;47.982;11.516;2024-01-27T01:03:24;3.15;;;1.20;;
71106;SDS011;58763;47.982;11.516;2024-01-27T01:05:49;4.22;;;1.33;;
71106;SDS011;58763;47.982;11.516;2024-01-27T01:08:15;4.05;;;1.40;;
71106;SDS011;58763;47.982;11.516;2024-01-27T01:10:41;5.05;;;1.60;;
71106;SDS011;58763;47.982;11.516;2024-01-27T01:13:06;3.60;;;1.63;;
71106;SDS011;58763;47.982;11.516;2024-01-27T01:15:32;3.22;;;1.48;;
71106;SDS011;58763;47.982;11.516;2024-01-27T01:17:58;4.45;;;1.23;;
71106;SDS011;58763;47.982;11.516;2024-01-27T01:20:23;4.18;;;1.63;;
71106;SDS011;58763;47.982;11.516;2024-01-27T01:22:51;3.15;;;1.20;;
71106;SDS011;58763;47.982;11.516;2024-01-27T01:25:17;6.70;;;1.48;;
71106;SDS011;58763;47.982;11.516;2024-01-27T01:27:43;4.93;;;1.50;;
71106;SDS011;58763;47.982;11.516;2024-01-27T01:30:09;6.38;;;1.58;;
71106;SDS011;58763;47.982;11.516;2024-01-27T01:32:35;4.10;;;1.48;;
71106;SDS011;58763;47.982;11.516;2024-01-27T01:35:00;5.75;;;1.20;;
71106;SDS011;58763;47.982;11.516;2024-01-27T01:37:26;4.47;;;1.52;;
71106;SDS011;58763;47.982;11.516;2024-01-27T01:39:51;4.00;;;1.50;;
71106;SDS011;58763;47.982;11.516;2024-01-27T01:42:17;5.50;;;1.55;;
71106;SDS011;58763;47.982;11.516;2024-01-27T01:44:43;6.05;;;1.50;;
71106;SDS011;58763;47.982;11.516;2024-01-27T01:47:09;5.32;;;1.63;;
71106;SDS011;58763;47.982;11.516;2024-01-27T01:49:35;4.38;;;1.67;;
71106;SDS011;58763;47.982;11.516;2024-01-27T01:52:03;6.03;;;1.85;;
71106;SDS011;58763;47.982;11.516;2024-01-27T01:54:29;4.18;;;1.60;;
71106;SDS011;58763;47.982;11.516;2024-01-27T01:56:57;4.50;;;1.55;;
71106;SDS011;58763;47.982;11.516;2024-01-27T01:59:24;6.40;;;2.33;;
71106;SDS011;58763;47.982;11.516;2024-01-27T02:01:49;6.38;;;1.63;;
71106;SDS011;58763;47.982;11.516;2024-01-27T02:04:15;5.72;;;1.70;;
71106;SDS011;58763;47.982;11.516;2024-01-27T02:06:41;6.70;;;1.50;;
71106;SDS011;58763;47.982;11.516;2024-01-27T02:09:06;4.75;;;1.65;;
71106;SDS011;58763;47.982;11.516;2024-01-27T02:11:32;5.90;;;1.77;;
71106;SDS011;58763;47.982;11.516;2024-01-27T02:13:57;8.48;;;1.85;;
71106;SDS011;58763;47.982;11.516;2024-01-27T02:16:23;5.68;;;1.30;;
71106;SDS011;58763;47.982;11.516;2024-01-27T02:18:48;6.35;;;1.63;;
71106;SDS011;58763;47.982;11.516;2024-01-27T02:21:14;5.32;;;1.50;;
71106;SDS011;58763;47.982;11.516;2024-01-27T02:23:40;4.20;;;1.63;;
71106;SDS011;58763;47.982;11.516;2024-01-27T02:26:05;3.92;;;1.50;;
71106;SDS011;58763;47.982;11.516;2024-01-27T02:28:31;5.60;;;1.60;;
71106;SDS011;58763;47.982;11.516;2024-01-27T02:30:59;4.20;;;1.55;;
71106;SDS011;58763;47.982;11.516;2024-01-27T02:33:28;4.13;;;1.50;;
71106;SDS011;58763;47.982;11.516;2024-01-27T02:35:54;5.57;;;1.75;;
71106;SDS011;58763;47.982;11.516;2024-01-27T02:38:20;6.93;;;1.85;;
71106;SDS011;58763;47.982;11.516;2024-01-27T02:40:45;8.50;;;1.70;;
71106;SDS011;58763;47.982;11.516;2024-01-27T02:43:11;4.32;;;1.73;;
71106;SDS011;58763;47.982;11.516;2024-01-27T02:45:37;6.35;;;1.58;;
71106;SDS011;58763;47.982;11.516;2024-01-27T02:48:03;7.20;;;1.70;;
71106;SDS011;58763;47.982;11.516;2024-01-27T02:50:29;9.48;;;4.70;;
71106;SDS011;58763;47.982;11.516;2024-01-27T02:52:55;9.25;;;4.70;;
71106;SDS011;58763;47.982;11.516;2024-01-27T02:55:20;5.90;;;2.00;;
71106;SDS011;58763;47.982;11.516;2024-01-27T02:57:46;7.15;;;1.63;;
71106;SDS011;58763;47.982;11.516;2024-01-27T03:00:11;5.38;;;1.50;;
71106;SDS011;58763;47.982;11.516;2024-01-27T03:02:37;3.63;;;1.35;;
71106;SDS011;58763;47.982;11.516;2024-01-27T03:05:03;6.68;;;1.67;;
71106;SDS011;58763;47.982;11.516;2024-01-27T03:07:29;3.58;;;1.45;;
71106;SDS011;58763;47.982;11.516;2024-01-27T03:09:54;4.22;;;1.70;;
71106;SDS011;58763;47.982;11.516;2024-01-27T03:12:20;3.97;;;1.60;;
71106;SDS011;58763;47.982;11.516;2024-01-27T03:14:48;5.93;;;1.70;;
71106;SDS011;58763;47.982;11.516;2024-01-27T03:17:15;5.65;;;1.70;;
71106;SDS011;58763;47.982;11.516;2024-01-27T03:19:41;5.38;;;1.50;;
71106;SDS011;58763;47.982;11.516;2024-01-27T03:22:06;3.40;;;1.17;;
71106;SDS011;58763;47.982;11.516;2024-01-27T03:24:32;5.55;;;1.40;;
71106;SDS011;58763;47.982;11.516;2024-01-27T03:26:58;7.38;;;1.80;;
71106;SDS011;58763;47.982;11.516;2024-01-27T03:29:23;3.80;;;1.48;;
71106;SDS011;58763;47.982;11.516;2024-01-27T03:31:49;4.72;;;1.55;;
71106;SDS011;58763;47.982;11.516;2024-01-27T03:34:14;4.50;;;1.70;;
71106;SDS011;58763;47.982;11.516;2024-01-27T03:36:40;3.65;;;1.52;;
71106;SDS011;58763;47.982;11.516;2024-01-27T03:39:06;3.08;;;1.55;;
71106;SDS011;58763;47.982;11.516;2024-01-27T03:41:33;6.72;;;1.63;;
71106;SDS011;58763;47.982;11.516;2024-01-27T03:43:58;7.93;;;1.60;;
71106;SDS011;58763;47.982;11.516;2024-01-27T03:46:24;5.30;;;1.52;;
71106;SDS011;58763;47.982;11.516;2024-01-27T03:48:50;4.70;;;1.60;;
71106;SDS011;58763;47.982;11.516;2024-01-27T03:51:16;4.55;;;1.58;;
71106;SDS011;58763;47.982;11.516;2024-01-27T03:53:41;4.22;;;1.50;;
71106;SDS011;58763;47.982;11.516;2024-01-27T03:56:07;6.45;;;1.85;;
71106;SDS011;58763;47.982;11.516;2024-01-27T03:58:36;5.05;;;1.60;;
71106;SDS011;58763;47.982;11.516;2024-01-27T04:01:04;5.10;;;1.85;;
71106;SDS011;58763;47.982;11.516;2024-01-27T04:03:29;4.50;;;1.42;;
71106;SDS011;58763;47.982;11.516;2024-01-27T04:05:55;3.53;;;1.60;;
71106;SDS011;58763;47.982;11.516;2024-01-27T04:08:21;6.35;;;1.70;;
71106;SDS011;58763;47.982;11.516;2024-01-27T04:10:46;8.40;;;1.73;;
71106;SDS011;58763;47.982;11.516;2024-01-27T04:13:12;5.75;;;1.60;;
71106;SDS011;58763;47.982;11.516;2024-01-27T04:15:38;5.95;;;1.90;;
71106;SDS011;58763;47.982;11.516;2024-01-27T04:18:08;6.32;;;1.77;;
71106;SDS011;58763;47.982;11.516;2024-01-27T04:20:34;4.75;;;1.67;;
71106;SDS011;58763;47.982;11.516;2024-01-27T04:23:00;4.88;;;1.80;;
71106;SDS011;58763;47.982;11.516;2024-01-27T04:25:26;3.42;;;1.30;;
71106;SDS011;58763;47.982;11.516;2024-01-27T04:27:52;5.13;;;1.40;;
71106;SDS011;58763;47.982;11.516;2024-01-27T04:30:18;5.25;;;1.40;;
71106;SDS011;58763;47.982;11.516;2024-01-27T04:32:44;5.15;;;1.55;;
71106;SDS011;58763;47.982;11.516;2024-01-27T04:35:10;7.57;;;1.58;;
71106;SDS011;58763;47.982;11.516;2024-01-27T04:37:36;4.68;;;1.50;;
71106;SDS011;58763;47.982;11.516;2024-01-27T04:40:03;5.63;;;1.48;;
71106;SDS011;58763;47.982;11.516;2024-01-27T04:42:33;4.10;;;1.65;;
71106;SDS011;58763;47.982;11.516;2024-01-27T04:45:07;8.13;;;3.85;;
71106;SDS011;58763;47.982;11.516;2024-01-27T04:47:33;8.57;;;2.00;;
71106;SDS011;58763;47.982;11.516;2024-01-27T04:49:59;7.80;;;1.73;;
71106;SDS011;58763;47.982;11.516;2024-01-27T04:52:25;4.70;;;1.40;;
71106;SDS011;58763;47.982;11.516;2024-01-27T04:54:51;7.22;;;1.73;;
71106;SDS011;58763;47.982;11.516;2024-01-27T04:57:17;6.40;;;1.33;;
71106;SDS011;58763;47.982;11.516;2024-01-27T04:59:43;4.68;;;1.42;;
71106;SDS011;58763;47.982;11.516;2024-01-27T05:02:08;6.88;;;1.30;;
71106;SDS011;58763;47.982;11.516;2024-01-27T05:04:34;4.50;;;1.45;;
71106;SDS011;58763;47.982;11.516;2024-01-27T05:06:59;5.93;;;1.40;;
71106;SDS011;58763;47.982;11.516;2024-01-27T05:09:25;5.25;;;1.70;;
71106;SDS011;58763;47.982;11.516;2024-01-27T05:11:51;5.50;;;1.40;;
71106;SDS011;58763;47.982;11.516;2024-01-27T05:14:19;4.53;;;1.60;;
71106;SDS011;58763;47.982;11.516;2024-01-27T05:16:45;4.72;;;1.55;;
71106;SDS011;58763;47.982;11.516;2024-01-27T05:19:10;4.50;;;1.42;;
71106;SDS011;58763;47.982;11.516;2024-01-27T05:21:37;4.57;;;1.65;;
71106;SDS011;58763;47.982;11.516;2024-01-27T05:24:03;5.57;;;1.70;;
71106;SDS011;58763;47.982;11.516;2024-01-27T05:26:29;5.28;;;1.45;;
71106;SDS011;58763;47.982;11.516;2024-01-27T05:28:55;5.47;;;1.90;;
71106;SDS011;58763;47.982;11.516;2024-01-27T05:31:21;8.35;;;1.80;;
71106;SDS011;58763;47.982;11.516;2024-01-27T05:33:46;5.20;;;1.67;;
71106;SDS011;58763;47.982;11.516;2024-01-27T05:36:12;5.82;;;1.60;;
71106;SDS011;58763;47.982;11.516;2024-01-27T05:38:37;4.30;;;1.50;;
71106;SDS011;58763;47.982;11.516;2024-01-27T05:41:03;7.00;;;1.75;;
71106;SDS011;58763;47.982;11.516;2024-01-27T05:43:29;7.40;;;1.65;;
71106;SDS011;58763;47.982;11.516;2024-01-27T05:45:54;4.72;;;1.50;;
71106;SDS011;58763;47.982;11.516;2024-01-27T05:48:20;3.88;;;1.85;;
71106;SDS011;58763;47.982;11.516;2024-01-27T05:50:58;4.72;;;2.47;;
71106;SDS011;58763;47.982;11.516;2024-01-27T05:53:25;5.68;;;1.80;;
71106;SDS011;58763;47.982;11.516;2024-01-27T05:55:52;5.43;;;1.92;;
71106;SDS011;58763;47.982;11.516;2024-01-27T05:58:19;6.07;;;2.08;;
71106;SDS011;58763;47.982;11.516;2024-01-27T06:00:48;7.38;;;1.85;;
71106;SDS011;58763;47.982;11.516;2024-01-27T06:03:15;5.65;;;1.80;;
71106;SDS011;58763;47.982;11.516;2024-01-27T06:05:42;6.32;;;1.80;;
71106;SDS011;58763;47.982;11.516;2024-01-27T06:08:07;5.80;;;2.10;;
71106;SDS011;58763;47.982;11.516;2024-01-27T06:10:34;6.85;;;1.92;;
71106;SDS011;58763;47.982;11.516;2024-01-27T06:13:02;6.18;;;1.85;;
71106;SDS011;58763;47.982;11.516;2024-01-27T06:15:28;4.63;;;1.80;;
71106;SDS011;58763;47.982;11.516;2024-01-27T06:17:54;6.70;;;2.03;;
71106;SDS011;58763;47.982;11.516;2024-01-27T06:20:19;5.05;;;2.33;;
71106;SDS011;58763;47.982;11.516;2024-01-27T06:22:45;5.97;;;2.05;;
71106;SDS011;58763;47.982;11.516;2024-01-27T06:25:11;5.85;;;1.80;;
71106;SDS011;58763;47.982;11.516;2024-01-27T06:27:37;6.47;;;2.20;;
71106;SDS011;58763;47.982;11.516;2024-01-27T06:30:09;3.50;;;1.85;;
71106;SDS011;58763;47.982;11.516;2024-01-27T06:32:36;4.65;;;1.95;;
71106;SDS011;58763;47.982;11.516;2024-01-27T06:35:02;4.35;;;1.80;;
71106;SDS011;58763;47.982;11.516;2024-01-27T06:37:29;7.10;;;2.00;;
71106;SDS011;58763;47.982;11.516;2024-01-27T06:39:55;7.53;;;1.80;;
71106;SDS011;58763;47.982;11.516;2024-01-27T06:42:24;5.32;;;1.88;;
71106;SDS011;58763;47.982;11.516;2024-01-27T06:44:49;5.47;;;1.95;;
71106;SDS011;58763;47.982;11.516;2024-01-27T06:47:15;4.35;;;2.08;;
71106;SDS011;58763;47.982;11.516;2024-01-27T06:49:41;3.88;;;1.73;;
71106;SDS011;58763;47.982;11.516;2024-01-27T06:52:06;6.82;;;1.73;;
71106;SDS011;58763;47.982;11.516;2024-01-27T06:54:32;5.18;;;1.90;;
71106;SDS011;58763;47.982;11.516;2024-01-27T06:56:59;6.88;;;1.83;;
71106;SDS011;58763;47.982;11.516;2024-01-27T06:59:26;4.45;;;1.88;;
71106;SDS011;58763;47.982;11.516;2024-01-27T07:01:51;7.55;;;3.05;;
71106;SDS011;58763;47.982;11.516;2024-01-27T07:04:17;6.90;;;2.20;;
71106;SDS011;58763;47.982;11.516;2024-01-27T07:06:43;5.30;;;1.60;;
71106;SDS011;58763;47.982;11.516;2024-01-27T07:09:09;5.28;;;1.90;;
71106;SDS011;58763;47.982;11.516;2024-01-27T07:11:35;7.22;;;2.25;;
71106;SDS011;58763;47.982;11.516;2024-01-27T07:14:05;9.57;;;2.50;;
71106;SDS011;58763;47.982;11.516;2024-01-27T07:16:32;4.05;;;2.10;;
71106;SDS011;58763;47.982;11.516;2024-01-27T07:18:59;7.22;;;2.65;;
71106;SDS011;58763;47.982;11.516;2024-01-27T07:21:25;5.03;;;2.15;;
71106;SDS011;58763;47.982;11.516;2024-01-27T07:23:52;6.13;;;2.38;;
71106;SDS011;58763;47.982;11.516;2024-01-27T07:26:19;7.50;;;2.17;;
71106;SDS011;58763;47.982;11.516;2024-01-27T07:28:45;6.80;;;2.30;;
71106;SDS011;58763;47.982;11.516;2024-01-27T07:31:11;5.50;;;2.28;;
71106;SDS011;58763;47.982;11.516;2024-01-27T07:33:38;5.32;;;2.30;;
71106;SDS011;58763;47.982;11.516;2024-01-27T07:36:04;5.20;;;2.47;;
71106;SDS011;58763;47.982;11.516;2024-01-27T07:38:30;7.57;;;2.13;;
71106;SDS011;58763;47.982;11.516;2024-01-27T07:40:55;6.43;;;2.47;;
71106;SDS011;58763;47.982;11.516;2024-01-27T07:43:21;7.38;;;2.38;;
71106;SDS011;58763;47.982;11.516;2024-01-27T07:45:48;5.45;;;2.33;;
71106;SDS011;58763;47.982;11.516;2024-01-27T07:48:14;5.53;;;2.53;;
71106;SDS011;58763;47.982;11.516;2024-01-27T07:50:40;6.50;;;2.40;;
71106;SDS011;58763;47.982;11.516;2024-01-27T07:53:05;7.00;;;2.78;;
71106;SDS011;58763;47.982;11.516;2024-01-27T07:55:31;5.53;;;2.38;;
71106;SDS011;58763;47.982;11.516;2024-01-27T07:57:56;6.57;;;2.20;;
71106;SDS011;58763;47.982;11.516;2024-01-27T08:00:22;6.07;;;2.60;;
71106;SDS011;58763;47.982;11.516;2024-01-27T08:02:47;7.22;;;3.00;;
71106;SDS011;58763;47.982;11.516;2024-01-27T08:05:13;6.80;;;2.97;;
71106;SDS011;58763;47.982;11.516;2024-01-27T08:07:39;9.25;;;2.97;;
71106;SDS011;58763;47.982;11.516;2024-01-27T08:10:05;6.07;;;2.88;;
71106;SDS011;58763;47.982;11.516;2024-01-27T08:12:31;6.95;;;2.60;;
71106;SDS011;58763;47.982;11.516;2024-01-27T08:14:56;9.02;;;3.08;;
71106;SDS011;58763;47.982;11.516;2024-01-27T08:17:22;8.93;;;3.10;;
71106;SDS011;58763;47.982;11.516;2024-01-27T08:19:47;6.20;;;2.80;;
71106;SDS011;58763;47.982;11.516;2024-01-27T08:22:13;5.75;;;2.75;;
71106;SDS011;58763;47.982;11.516;2024-01-27T08:24:40;8.82;;;3.17;;
71106;SDS011;58763;47.982;11.516;2024-01-27T08:27:05;10.95;;;3.10;;
71106;SDS011;58763;47.982;11.516;2024-01-27T08:29:31;5.95;;;3.03;;
71106;SDS011;58763;47.982;11.516;2024-01-27T08:31:56;10.70;;;3.30;;
71106;SDS011;58763;47.982;11.516;2024-01-27T08:34:22;9.07;;;3.13;;
71106;SDS011;58763;47.982;11.516;2024-01-27T08:36:48;7.15;;;3.03;;
71106;SDS011;58763;47.982;11.516;2024-01-27T08:39:13;6.50;;;2.72;;
71106;SDS011;58763;47.982;11.516;2024-01-27T08:41:39;8.35;;;2.70;;
71106;SDS011;58763;47.982;11.516;2024-01-27T08:44:05;10.68;;;2.88;;
71106;SDS011;58763;47.982;11.516;2024-01-27T08:46:30;5.90;;;2.97;;
71106;SDS011;58763;47.982;11.516;2024-01-27T08:48:59;9.05;;;3.05;;
71106;SDS011;58763;47.982;11.516;2024-01-27T08:51:24;8.05;;;2.78;;
71106;SDS011;58763;47.982;11.516;2024-01-27T08:53:50;9.32;;;3.22;;
71106;SDS011;58763;47.982;11.516;2024-01-27T08:56:16;10.13;;;3.28;;
71106;SDS011;58763;47.982;11.516;2024-01-27T08:58:43;7.43;;;3.13;;
71106;SDS011;58763;47.982;11.516;2024-01-27T09:01:09;8.48;;;3.25;;
71106;SDS011;58763;47.982;11.516;2024-01-27T09:03:39;8.80;;;3.22;;
71106;SDS011;58763;47.982;11.516;2024-01-27T09:06:08;7.00;;;2.88;;
71106;SDS011;58763;47.982;11.516;2024-01-27T09:08:33;9.30;;;3.05;;
71106;SDS011;58763;47.982;11.516;2024-01-27T09:11:01;7.78;;;3.28;;
71106;SDS011;58763;47.982;11.516;2024-01-27T09:13:30;11.07;;;3.40;;
71106;SDS011;58763;47.982;11.516;2024-01-27T09:15:58;10.05;;;3.10;;
71106;SDS011;58763;47.982;11.516;2024-01-27T09:18:25;9.25;;;3.20;;
71106;SDS011;58763;47.982;11.516;2024-01-27T09:20:53;7.47;;;3.58;;
71106;SDS011;58763;47.982;11.516;2024-01-27T09:23:18;6.68;;;2.53;;
71106;SDS011;58763;47.982;11.516;2024-01-27T09:25:44;9.65;;;2.88;;
71106;SDS011;58763;47.982;11.516;2024-01-27T09:28:09;8.07;;;2.63;;
71106;SDS011;58763;47.982;11.516;2024-01-27T09:30:36;11.30;;;3.22;;
71106;SDS011;58763;47.982;11.516;2024-01-27T09:33:02;7.78;;;2.72;;
71106;SDS011;58763;47.982;11.516;2024-01-27T09:35:27;6.85;;;2.63;;
71106;SDS011;58763;47.982;11.516;2024-01-27T09:37:53;7.63;;;2.70;;
71106;SDS011;58763;47.982;11.516;2024-01-27T09:40:19;10.10;;;2.60;;
71106;SDS011;58763;47.982;11.516;2024-01-27T09:42:50;8.57;;;2.55;;
71106;SDS011;58763;47.982;11.516;2024-01-27T09:45:22;6.35;;;2.50;;
71106;SDS011;58763;47.982;11.516;2024-01-27T09:47:47;5.65;;;2.38;;
71106;SDS011;58763;47.982;11.516;2024-01-27T09:50:15;5.50;;;2.20;;
71106;SDS011;58763;47.982;11.516;2024-01-27T09:52:43;8.75;;;2.75;;
71106;SDS011;58763;47.982;11.516;2024-01-27T09:55:09;6.43;;;2.40;;
71106;SDS011;58763;47.982;11.516;2024-01-27T09:57:36;6.25;;;2.08;;
71106;SDS011;58763;47.982;11.516;2024-01-27T10:00:04;8.65;;;2.40;;
71106;SDS011;58763;47.982;11.516;2024-01-27T10:02:35;7.13;;;1.95;;
71106;SDS011;58763;47.982;11.516;2024-01-27T10:05:04;5.68;;;2.17;;
71106;SDS011;58763;47.982;11.516;2024-01-27T10:07:32;9.18;;;2.10;;
71106;SDS011;58763;47.982;11.516;2024-01-27T10:09:58;5.90;;;2.22;;
71106;SDS011;58763;47.982;11.516;2024-01-27T10:12:24;4.95;;;1.85;;
71106;SDS011;58763;47.982;11.516;2024-01-27T10:14:51;8.35;;;2.28;;
71106;SDS011;58763;47.982;11.516;2024-01-27T10:17:21;6.25;;;2.15;;
71106;SDS011;58763;47.982;11.516;2024-01-27T10:20:00;5.80;;;2.00;;
71106;SDS011;58763;47.982;11.516;2024-01-27T10:22:38;6.55;;;1.95;;
71106;SDS011;58763;47.982;11.516;2024-01-27T10:25:05;5.68;;;1.98;;
71106;SDS011;58763;47.982;11.516;2024-01-27T10:27:31;6.18;;;2.22;;
71106;SDS011;58763;47.982;11.516;2024-01-27T10:29:57;12.32;;;2.45;;
71106;SDS011;58763;47.982;11.516;2024-01-27T10:32:22;8.15;;;2.25;;
71106;SDS011;58763;47.982;11.516;2024-01-27T10:35:04;6.95;;;2.38;;
71106;SDS011;58763;47.982;11.516;2024-01-27T10:37:33;8.38;;;2.25;;
71106;SDS011;58763;47.982;11.516;2024-01-27T10:40:03;6.03;;;2.25;;
71106;SDS011;58763;47.982;11.516;2024-01-27T10:42:32;7.80;;;2.30;;
71106;SDS011;58763;47.982;11.516;2024-01-27T10:45:00;4.88;;;2.20;;
71106;SDS011;58763;47.982;11.516;2024-01-27T10:47:27;6.97;;;2.08;;
71106;SDS011;58763;47.982;11.516;2024-01-27T10:49:55;6.63;;;1.88;;
71106;SDS011;58763;47.982;11.516;2024-01-27T10:52:32;7.18;;;2.22;;
71106;SDS011;58763;47.982;11.516;2024-01-27T10:55:00;7.60;;;2.45;;
71106;SDS011;58763;47.982;11.516;2024-01-27T10:57:31;8.52;;;2.22;;
71106;SDS011;58763;47.982;11.516;2024-01-27T10:59:58;6.75;;;2.50;;
71106;SDS011;58763;47.982;11.516;2024-01-27T11:02:28;7.45;;;2.28;;
71106;SDS011;58763;47.982;11.516;2024-01-27T11:04:57;7.03;;;1.80;;
71106;SDS011;58763;47.982;11.516;2024-01-27T11:07:25;7.97;;;1.80;;
71106;SDS011;58763;47.982;11.516;2024-01-27T11:09:51;7.28;;;1.90;;
71106;SDS011;58763;47.982;11.516;2024-01-27T11:12:17;5.53;;;2.17;;
71106;SDS011;58763;47.982;11.516;2024-01-27T11:14:46;8.10;;;2.08;;
71106;SDS011;58763;47.982;11.516;2024-01-27T11:17:15;9.90;;;1.98;;
71106;SDS011;58763;47.982;11.516;2024-01-27T11:19:41;5.15;;;1.92;;
71106;SDS011;58763;47.982;11.516;2024-01-27T11:22:07;6.93;;;1.90;;
71106;SDS011;58763;47.982;11.516;2024-01-27T11:24:33;8.98;;;2.10;;
71106;SDS011;58763;47.982;11.516;2024-01-27T11:27:05;5.80;;;1.73;;
71106;SDS011;58763;47.982;11.516;2024-01-27T11:29:32;4.95;;;1.70;;
71106;SDS011;58763;47.982;11.516;2024-01-27T11:32:02;4.40;;;1.45;;
71106;SDS011;58763;47.982;11.516;2024-01-27T11:34:40;5.85;;;1.70;;
71106;SDS011;58763;47.982;11.516;2024-01-27T11:37:11;5.53;;;2.00;;
71106;SDS011;58763;47.982;11.516;2024-01-27T11:39:41;8.05;;;2.00;;
71106;SDS011;58763;47.982;11.516;2024-01-27T11:42:07;6.63;;;1.92;;
71106;SDS011;58763;47.982;11.516;2024-01-27T11:44:34;6.35;;;2.03;;
71106;SDS011;58763;47.982;11.516;2024-01-27T11:47:01;5.32;;;1.88;;
71106;SDS011;58763;47.982;11.516;2024-01-27T11:49:27;6.47;;;1.63;;
71106;SDS011;58763;47.982;11.516;2024-01-27T11:51:53;4.05;;;1.63;;
71106;SDS011;58763;47.982;11.516;2024-01-27T11:54:20;7.45;;;1.90;;
71106;SDS011;58763;47.982;11.516;2024-01-27T11:56:46;7.00;;;2.10;;
71106;SDS011;58763;47.982;11.516;2024-01-27T11:59:11;4.00;;;1.67;;
71106;SDS011;58763;47.982;11.516;2024-01-27T12:01:37;6.72;;;2.00;;
71106;SDS011;58763;47.982;11.516;2024-01-27T12:04:04;6.57;;;2.00;;
71106;SDS011;58763;47.982;11.516;2024-01-27T12:06:30;8.63;;;2.13;;
71106;SDS011;58763;47.982;11.516;2024-01-27T12:08:56;5.82;;;2.40;;
71106;SDS011;58763;47.982;11.516;2024-01-27T12:11:26;8.13;;;2.20;;
71106;SDS011;58763;47.982;11.516;2024-01-27T12:13:52;9.27;;;2.47;;
71106;SDS011;58763;47.982;11.516;2024-01-27T12:16:19;7.57;;;2.15;;
71106;SDS011;58763;47.982;11.516;2024-01-27T12:18:47;6.82;;;2.40;;
71106;SDS011;58763;47.982;11.516;2024-01-27T12:21:12;5.32;;;2.22;;
71106;SDS011;58763;47.982;11.516;2024-01-27T12:23:49;5.93;;;2.00;;
71106;SDS011;58763;47.982;11.516;2024-01-27T12:26:16;6.05;;;2.47;;
71106;SDS011;58763;47.982;11.516;2024-01-27T12:28:45;5.90;;;2.25;;
71106;SDS011;58763;47.982;11.516;2024-01-27T12:31:11;8.68;;;2.63;;
71106;SDS011;58763;47.982;11.516;2024-01-27T12:33:37;7.25;;;2.30;;
71106;SDS011;58763;47.982;11.516;2024-01-27T12:36:06;7.03;;;2.45;;
71106;SDS011;58763;47.982;11.516;2024-01-27T12:38:32;7.18;;;2.42;;
71106;SDS011;58763;47.982;11.516;2024-01-27T12:40:58;7.15;;;2.30;;
71106;SDS011;58763;47.982;11.516;2024-01-27T12:43:24;7.07;;;2.42;;
71106;SDS011;58763;47.982;11.516;2024-01-27T12:45:50;7.85;;;2.38;;
71106;SDS011;58763;47.982;11.516;2024-01-27T12:48:15;7.63;;;2.50;;
71106;SDS011;58763;47.982;11.516;2024-01-27T12:50:41;6.72;;;2.28;;
71106;SDS011;58763;47.982;11.516;2024-01-27T12:53:07;7.65;;;2.30;;
71106;SDS011;58763;47.982;11.516;2024-01-27T12:55:33;5.25;;;2.10;;
71106;SDS011;58763;47.982;11.516;2024-01-27T12:57:58;7.13;;;1.85;;
71106;SDS011;58763;47.982;11.516;2024-01-27T13:00:24;5.05;;;1.73;;
71106;SDS011;58763;47.982;11.516;2024-01-27T13:02:49;5.68;;;1.60;;
71106;SDS011;58763;47.982;11.516;2024-01-27T13:05:15;5.22;;;2.05;;
71106;SDS011;58763;47.982;11.516;2024-01-27T13:07:40;5.72;;;2.00;;
71106;SDS011;58763;47.982;11.516;2024-01-27T13:10:07;6.65;;;2.03;;
71106;SDS011;58763;47.982;11.516;2024-01-27T13:12:33;5.15;;;1.17;;
71106;SDS011;58763;47.982;11.516;2024-01-27T13:15:00;4.90;;;1.30;;
71106;SDS011;58763;47.982;11.516;2024-01-27T13:17:26;4.45;;;1.13;;
71106;SDS011;58763;47.982;11.516;2024-01-27T13:19:52;5.28;;;1.20;;
71106;SDS011;58763;47.982;11.516;2024-01-27T13:22:18;2.78;;;0.80;;
71106;SDS011;58763;47.982;11.516;2024-01-27T13:24:45;4.88;;;1.38;;
71106;SDS011;58763;47.982;11.516;2024-01-27T13:27:11;3.50;;;1.20;;
71106;SDS011;58763;47.982;11.516;2024-01-27T13:29:37;4.50;;;1.50;;
71106;SDS011;58763;47.982;11.516;2024-01-27T13:32:04;5.65;;;1.35;;
71106;SDS011;58763;47.982;11.516;2024-01-27T13:34:29;6.38;;;1.30;;
71106;SDS011;58763;47.982;11.516;2024-01-27T13:36:56;5.18;;;1.50;;
71106;SDS011;58763;47.982;11.516;2024-01-27T13:39:22;4.22;;;1.00;;
71106;SDS011;58763;47.982;11.516;2024-01-27T13:41:47;5.40;;;1.40;;
71106;SDS011;58763;47.982;11.516;2024-01-27T13:44:13;5.88;;;1.60;;
71106;SDS011;58763;47.982;11.516;2024-01-27T13:46:38;5.65;;;1.52;;
71106;SDS011;58763;47.982;11.516;2024-01-27T13:49:04;2.63;;;1.23;;
71106;SDS011;58763;47.982;11.516;2024-01-27T13:51:29;3.65;;;1.13;;
71106;SDS011;58763;47.982;11.516;2024-01-27T13:53:55;3.75;;;1.35;;
71106;SDS011;58763;47.982;11.516;2024-01-27T13:56:21;4.55;;;1.33;;
71106;SDS011;58763;47.982;11.516;2024-01-27T13:58:46;4.32;;;1.52;;
71106;SDS011;58763;47.982;11.516;2024-01-27T14:01:12;4.55;;;1.15;;
71106;SDS011;58763;47.982;11.516;2024-01-27T14:03:37;5.57;;;1.50;;
71106;SDS011;58763;47.982;11.516;2024-01-27T14:06:04;3.05;;;1.20;;
71106;SDS011;58763;47.982;11.516;2024-01-27T14:08:29;5.38;;;1.52;;
71106;SDS011;58763;47.982;11.516;2024-01-27T14:10:55;8.07;;;1.60;;
71106;SDS011;58763;47.982;11.516;2024-01-27T14:13:21;3.88;;;1.42;;
71106;SDS011;58763;47.982;11.516;2024-01-27T14:15:47;4.95;;;1.30;;
71106;SDS011;58763;47.982;11.516;2024-01-27T14:18:13;5.28;;;1.60;;
71106;SDS011;58763;47.982;11.516;2024-01-27T14:20:46;6.63;;;1.55;;
71106;SDS011;58763;47.982;11.516;2024-01-27T14:23:13;5.60;;;1.10;;
71106;SDS011;58763;47.982;11.516;2024-01-27T14:25:40;5.68;;;2.40;;
71106;SDS011;58763;47.982;11.516;2024-01-27T14:28:06;4.53;;;1.65;;